createdAt,value
2023-02-19T00:04:03.291Z,10.74
2023-02-19T00:06:49.225Z,10.79
2023-02-19T00:09:34.953Z,10.74
2023-02-19T00:12:20.993Z,10.66
2023-02-19T00:15:06.952Z,10.54
2023-02-19T00:17:54.818Z,10.90
2023-02-19T00:20:40.646Z,10.80
2023-02-19T00:23:26.436Z,10.67
2023-02-19T00:26:18.297Z,10.61
2023-02-19T00:29:06.684Z,10.57
2023-02-19T00:31:52.550Z,10.42
2023-02-19T00:34:38.884Z,10.69
2023-02-19T00:37:24.738Z,10.39
2023-02-19T00:40:10.681Z,10.50
2023-02-19T00:42:56.529Z,10.42
2023-02-19T00:45:42.361Z,10.47
2023-02-19T00:48:28.315Z,10.30
2023-02-19T00:51:14.241Z,10.21
2023-02-19T00:54:00.221Z,10.12
2023-02-19T00:56:46.142Z,10.09
2023-02-19T00:59:31.904Z,10.26
2023-02-19T01:02:17.676Z,10.12
2023-02-19T01:05:03.493Z,10.18
2023-02-19T01:07:49.306Z,9.91
2023-02-19T01:10:35.306Z,9.95
2023-02-19T01:13:21.047Z,9.88
2023-02-19T01:16:07.029Z,9.86
2023-02-19T01:18:52.989Z,9.79
2023-02-19T01:21:38.835Z,9.98
2023-02-19T01:24:24.773Z,9.90
2023-02-19T01:27:10.554Z,9.78
2023-02-19T01:29:56.448Z,9.83
2023-02-19T01:32:42.371Z,9.70
2023-02-19T01:35:28.177Z,9.71
2023-02-19T01:38:13.968Z,9.21
2023-02-19T01:40:59.705Z,9.38
2023-02-19T01:43:45.621Z,9.45
2023-02-19T01:46:31.507Z,9.31
2023-02-19T01:49:17.212Z,9.23
2023-02-19T01:52:03.023Z,9.10
2023-02-19T01:54:50.534Z,9.27
2023-02-19T01:57:36.430Z,9.26
2023-02-19T02:00:22.294Z,9.18
2023-02-19T02:03:08.126Z,9.38
2023-02-19T02:05:53.930Z,9.53
2023-02-19T02:08:39.869Z,9.51
2023-02-19T02:11:25.705Z,9.62
2023-02-19T02:14:11.646Z,9.41
2023-02-19T02:16:57.492Z,9.26
2023-02-19T02:19:43.350Z,9.56
2023-02-19T02:22:29.192Z,9.19
2023-02-19T02:25:15.034Z,9.17
2023-02-19T02:28:00.922Z,9.26
2023-02-19T02:30:46.998Z,9.33
2023-02-19T02:33:32.802Z,9.25
2023-02-19T02:36:18.983Z,9.19
2023-02-19T02:39:04.901Z,9.40
2023-02-19T02:41:50.730Z,9.58
2023-02-19T02:44:36.612Z,9.65
2023-02-19T02:47:22.538Z,9.53
2023-02-19T02:50:08.377Z,9.79
2023-02-19T02:52:54.289Z,10.28
2023-02-19T02:55:40.170Z,10.53
2023-02-19T02:58:26.086Z,10.17
2023-02-19T03:01:12.157Z,9.99
2023-02-19T03:03:58.307Z,10.23
2023-02-19T03:06:44.229Z,10.43
2023-02-19T03:09:29.969Z,10.55
2023-02-19T03:12:15.924Z,10.46
2023-02-19T03:15:01.925Z,10.38
2023-02-19T03:17:47.713Z,10.39
2023-02-19T03:20:33.548Z,10.51
2023-02-19T03:23:19.424Z,10.53
2023-02-19T03:26:05.304Z,10.20
2023-02-19T03:28:51.260Z,10.06
2023-02-19T03:31:37.036Z,9.80
2023-02-19T03:34:23.621Z,9.65
2023-02-19T03:37:12.636Z,9.45
2023-02-19T03:39:58.576Z,9.42
2023-02-19T03:42:44.646Z,9.18
2023-02-19T03:45:30.692Z,9.36
2023-02-19T03:48:16.567Z,9.43
2023-02-19T03:51:02.293Z,9.53
2023-02-19T03:53:48.118Z,9.51
2023-02-19T03:56:33.985Z,9.92
2023-02-19T03:59:20.028Z,9.39
2023-02-19T04:02:05.901Z,9.04
2023-02-19T04:04:51.909Z,9.15
2023-02-19T04:07:37.733Z,9.22
2023-02-19T04:10:23.574Z,9.37
2023-02-19T04:13:20.465Z,8.86
2023-02-19T04:16:06.340Z,8.45
2023-02-19T04:18:52.185Z,8.47
2023-02-19T04:21:38.068Z,8.19
2023-02-19T04:24:23.837Z,8.33
2023-02-19T04:27:09.814Z,7.86
2023-02-19T04:29:55.595Z,7.61
2023-02-19T04:32:41.535Z,7.63
2023-02-19T04:35:27.461Z,7.62
2023-02-19T04:38:13.365Z,7.74
2023-02-19T04:40:59.389Z,7.71
2023-02-19T04:43:45.248Z,7.86
2023-02-19T04:46:31.199Z,8.08
2023-02-19T04:49:16.969Z,8.44
2023-02-19T04:52:02.741Z,8.44
2023-02-19T04:54:48.655Z,8.08
2023-02-19T04:57:34.465Z,8.42
2023-02-19T05:00:20.132Z,8.51
2023-02-19T05:03:06.099Z,8.35
2023-02-19T05:05:51.930Z,8.24
2023-02-19T05:08:37.755Z,8.49
2023-02-19T05:11:23.482Z,8.71
2023-02-19T05:14:09.252Z,9.18
2023-02-19T05:16:55.177Z,9.11
2023-02-19T05:19:41.054Z,9.01
2023-02-19T05:22:26.927Z,8.87
2023-02-19T05:25:12.772Z,8.47
2023-02-19T05:27:58.528Z,8.33
2023-02-19T05:30:44.526Z,8.46
2023-02-19T05:33:30.293Z,8.31
2023-02-19T05:36:16.210Z,8.04
2023-02-19T05:39:02.075Z,7.97
2023-02-19T05:41:48.011Z,7.90
2023-02-19T05:44:33.934Z,8.24
2023-02-19T05:47:19.779Z,8.37
2023-02-19T05:50:05.727Z,7.82
2023-02-19T05:52:51.581Z,8.38
2023-02-19T05:55:37.389Z,8.65
2023-02-19T05:58:23.203Z,8.92
2023-02-19T06:01:09.420Z,9.23
2023-02-19T06:03:57.406Z,9.18
2023-02-19T06:06:43.653Z,9.35
2023-02-19T06:09:29.541Z,9.15
2023-02-19T06:12:15.375Z,8.80
2023-02-19T06:15:01.229Z,9.18
2023-02-19T06:17:46.997Z,9.24
2023-02-19T06:20:32.846Z,9.28
2023-02-19T06:23:18.806Z,9.06
2023-02-19T06:26:05.114Z,8.90
2023-02-19T06:28:51.024Z,8.64
2023-02-19T06:31:36.932Z,8.39
2023-02-19T06:34:22.917Z,8.41
2023-02-19T06:37:08.803Z,8.42
2023-02-19T06:39:54.633Z,8.79
2023-02-19T06:42:40.513Z,9.05
2023-02-19T06:45:26.385Z,8.98
2023-02-19T06:48:12.314Z,9.00
2023-02-19T06:50:58.197Z,9.32
2023-02-19T06:53:44.149Z,9.58
2023-02-19T06:56:29.992Z,9.54
2023-02-19T06:59:15.913Z,9.57
2023-02-19T07:02:01.630Z,9.79
2023-02-19T07:04:47.704Z,9.98
2023-02-19T07:07:33.612Z,10.36
2023-02-19T07:10:19.610Z,10.57
2023-02-19T07:13:05.430Z,10.62
2023-02-19T07:15:52.340Z,10.75
2023-02-19T07:18:38.293Z,10.73
2023-02-19T07:21:24.238Z,10.79
2023-02-19T07:24:09.988Z,10.86
2023-02-19T07:26:55.961Z,10.74
2023-02-19T07:29:41.897Z,11.13
2023-02-19T07:32:27.890Z,11.16
2023-02-19T07:35:13.762Z,11.28
2023-02-19T07:37:59.513Z,10.96
2023-02-19T07:40:45.480Z,10.46
2023-02-19T07:43:31.271Z,10.99
2023-02-19T07:46:17.031Z,10.76
2023-02-19T07:49:02.878Z,10.69
2023-02-19T07:51:48.752Z,10.73
2023-02-19T07:54:34.583Z,10.86
2023-02-19T07:57:20.457Z,11.00
2023-02-19T08:00:06.364Z,11.10
2023-02-19T08:02:52.150Z,10.97
2023-02-19T08:05:38.070Z,11.12
2023-02-19T08:08:23.782Z,11.19
2023-02-19T08:11:10.122Z,11.51
2023-02-19T08:13:56.204Z,11.74
2023-02-19T08:16:43.503Z,11.75
2023-02-19T08:19:29.728Z,12.08
2023-02-19T08:22:15.527Z,12.13
2023-02-19T08:25:01.407Z,10.88
2023-02-19T08:27:47.275Z,9.16
2023-02-19T08:30:33.211Z,9.62
2023-02-19T08:33:19.506Z,10.27
2023-02-19T08:36:05.371Z,10.14
2023-02-19T08:38:51.301Z,10.61
2023-02-19T08:41:37.163Z,8.98
2023-02-19T08:44:23.032Z,9.18
2023-02-19T08:47:09.031Z,9.67
2023-02-19T08:49:55.069Z,10.22
2023-02-19T08:52:40.779Z,10.29
2023-02-19T08:55:26.721Z,10.50
2023-02-19T08:58:12.590Z,10.48
2023-02-19T09:00:58.450Z,10.62
2023-02-19T09:03:44.452Z,10.93
2023-02-19T09:06:30.257Z,11.02
2023-02-19T09:09:16.171Z,11.29
2023-02-19T09:12:02.109Z,11.25
2023-02-19T09:14:47.842Z,11.44
2023-02-19T09:17:33.715Z,11.80
2023-02-19T09:20:19.594Z,11.65
2023-02-19T09:23:05.463Z,11.89
2023-02-19T09:25:51.517Z,11.92
2023-02-19T09:28:37.377Z,11.92
2023-02-19T09:31:23.534Z,11.39
2023-02-19T09:34:09.614Z,11.79
2023-02-19T09:36:55.562Z,12.14
2023-02-19T09:39:41.556Z,12.41
2023-02-19T09:42:27.439Z,12.54
2023-02-19T09:45:13.342Z,12.67
2023-02-19T09:47:59.308Z,12.94
2023-02-19T09:50:45.188Z,12.84
2023-02-19T09:53:31.018Z,12.96
2023-02-19T09:56:17.100Z,13.13
2023-02-19T09:59:02.917Z,13.17
2023-02-19T10:01:49.047Z,13.41
2023-02-19T10:04:34.842Z,12.91
2023-02-19T10:07:20.836Z,13.37
2023-02-19T10:10:06.755Z,12.66
2023-02-19T10:12:52.593Z,11.67
2023-02-19T10:15:38.529Z,10.69
2023-02-19T10:18:24.485Z,10.24
2023-02-19T10:21:10.564Z,10.37
2023-02-19T10:23:56.701Z,9.70
2023-02-19T10:26:42.621Z,10.07
2023-02-19T10:29:28.502Z,10.14
2023-02-19T10:32:14.523Z,9.91
2023-02-19T10:35:00.370Z,10.14
2023-02-19T10:37:46.283Z,10.79
2023-02-19T10:40:32.107Z,10.33
2023-02-19T10:43:17.802Z,11.05
2023-02-19T10:46:03.624Z,10.74
2023-02-19T10:48:49.426Z,10.46
2023-02-19T10:51:35.368Z,11.22
2023-02-19T10:54:21.256Z,11.02
2023-02-19T10:57:07.252Z,11.88
2023-02-19T10:59:53.149Z,11.88
2023-02-19T11:02:39.006Z,10.79
2023-02-19T11:05:24.996Z,9.97
2023-02-19T11:08:10.881Z,10.13
2023-02-19T11:10:56.744Z,10.14
2023-02-19T11:13:42.560Z,10.18
2023-02-19T11:16:28.578Z,10.06
2023-02-19T11:19:14.555Z,10.62
2023-02-19T11:22:00.373Z,10.84
2023-02-19T11:24:46.254Z,11.36
2023-02-19T11:27:32.055Z,10.46
2023-02-19T11:30:17.953Z,10.80
2023-02-19T11:33:03.830Z,10.48
2023-02-19T11:35:51.861Z,10.23
2023-02-19T11:38:37.696Z,10.69
2023-02-19T11:41:23.660Z,11.00
2023-02-19T11:44:09.373Z,10.56
2023-02-19T11:46:55.304Z,10.69
2023-02-19T11:49:41.212Z,10.90
2023-02-19T11:52:27.176Z,11.00
2023-02-19T11:55:13.025Z,12.32
2023-02-19T11:57:58.986Z,11.22
2023-02-19T12:00:44.758Z,10.99
2023-02-19T12:03:30.693Z,11.31
2023-02-19T12:06:16.567Z,10.93
2023-02-19T12:09:02.482Z,11.58
2023-02-19T12:11:48.517Z,11.32
2023-02-19T12:14:34.298Z,11.06
2023-02-19T12:17:20.201Z,11.10
2023-02-19T12:20:06.022Z,11.50
2023-02-19T12:22:51.965Z,11.77
2023-02-19T12:25:37.898Z,11.05
2023-02-19T12:28:23.878Z,11.49
2023-02-19T12:31:09.705Z,12.13
2023-02-19T12:33:55.470Z,11.95
2023-02-19T12:36:41.348Z,11.74
2023-02-19T12:39:27.198Z,11.48
2023-02-19T12:42:13.099Z,11.90
2023-02-19T12:44:58.877Z,12.49
2023-02-19T12:47:45.295Z,11.60
2023-02-19T12:50:31.202Z,11.44
2023-02-19T12:53:17.026Z,10.95
2023-02-19T12:56:02.975Z,11.57
2023-02-19T12:58:48.756Z,11.23
2023-02-19T13:01:34.789Z,12.34
2023-02-19T13:04:20.671Z,11.72
2023-02-19T13:07:06.532Z,11.89
2023-02-19T13:09:52.454Z,12.31
2023-02-19T13:12:38.287Z,13.17
2023-02-19T13:15:24.140Z,13.80
2023-02-19T13:18:09.994Z,14.27
2023-02-19T13:20:55.702Z,14.17
2023-02-19T13:23:41.574Z,14.62
2023-02-19T13:26:27.607Z,13.37
2023-02-19T13:29:13.395Z,12.35
2023-02-19T13:31:59.382Z,12.89
2023-02-19T13:34:45.350Z,13.20
2023-02-19T13:37:31.141Z,12.45
2023-02-19T13:40:17.001Z,12.37
2023-02-19T13:43:02.859Z,12.03
2023-02-19T13:45:48.924Z,11.70
2023-02-19T13:48:35.291Z,12.75
2023-02-19T13:51:21.107Z,13.59
2023-02-19T13:54:07.162Z,13.82
2023-02-19T13:56:52.874Z,13.75
2023-02-19T13:59:38.774Z,13.88
2023-02-19T14:02:24.724Z,12.77
2023-02-19T14:05:12.854Z,12.28
2023-02-19T14:07:58.886Z,12.62
2023-02-19T14:10:44.710Z,13.09
2023-02-19T14:13:30.610Z,14.09
2023-02-19T14:16:16.431Z,14.17
2023-02-19T14:19:02.425Z,14.10
2023-02-19T14:21:48.234Z,12.78
2023-02-19T14:24:34.122Z,12.83
2023-02-19T14:27:20.071Z,12.70
2023-02-19T14:30:06.305Z,13.62
2023-02-19T14:33:07.695Z,13.76
2023-02-19T14:35:55.728Z,13.34
2023-02-19T14:38:41.629Z,12.96
2023-02-19T14:41:27.474Z,11.99
2023-02-19T14:44:13.270Z,11.85
2023-02-19T14:46:59.073Z,11.15
2023-02-19T14:49:45.014Z,10.92
2023-02-19T14:52:30.817Z,10.61
2023-02-19T14:55:16.731Z,10.74
2023-02-19T14:58:02.608Z,10.89
2023-02-19T15:00:48.462Z,11.05
2023-02-19T15:03:34.506Z,10.54
2023-02-19T15:06:20.249Z,10.63
2023-02-19T15:09:06.232Z,10.55
2023-02-19T15:11:52.078Z,10.73
2023-02-19T15:14:38.070Z,10.46
2023-02-19T15:17:23.865Z,10.12
2023-02-19T15:20:09.639Z,10.05
2023-02-19T15:22:55.634Z,10.15
2023-02-19T15:25:41.489Z,9.89
2023-02-19T15:28:27.368Z,9.55
2023-02-19T15:31:13.661Z,9.86
2023-02-19T15:33:59.720Z,9.87
2023-02-19T15:36:45.576Z,9.70
2023-02-19T15:39:31.470Z,9.53
2023-02-19T15:42:17.452Z,9.43
2023-02-19T15:45:03.435Z,9.72
2023-02-19T15:47:49.245Z,9.32
2023-02-19T15:50:35.146Z,8.92
2023-02-19T15:53:21.205Z,8.88
2023-02-19T15:56:06.935Z,8.78
2023-02-19T15:58:52.893Z,8.60
2023-02-19T16:01:38.661Z,8.53
2023-02-19T16:04:24.410Z,8.56
2023-02-19T16:07:10.300Z,8.58
2023-02-19T16:09:56.131Z,8.81
2023-02-19T16:12:42.205Z,8.54
2023-02-19T16:15:28.219Z,8.56
2023-02-19T16:18:13.997Z,8.52
2023-02-19T16:20:59.744Z,8.52
2023-02-19T16:23:45.718Z,8.60
2023-02-19T16:26:31.562Z,8.10
2023-02-19T16:29:17.484Z,8.19
2023-02-19T16:32:03.449Z,7.90
2023-02-19T16:34:49.774Z,7.82
2023-02-19T16:37:35.657Z,7.96
2023-02-19T16:40:21.599Z,8.24
2023-02-19T16:43:07.521Z,7.93
2023-02-19T16:45:53.316Z,7.91
2023-02-19T16:48:39.084Z,7.90
2023-02-19T16:51:25.038Z,7.80
2023-02-19T16:54:11.024Z,7.85
2023-02-19T16:56:56.829Z,7.75
2023-02-19T16:59:42.721Z,7.69
2023-02-19T17:02:28.656Z,8.29
2023-02-19T17:05:14.547Z,8.24
2023-02-19T17:08:00.298Z,8.27
2023-02-19T17:10:46.106Z,8.63
2023-02-19T17:13:32.006Z,8.93
2023-02-19T17:16:18.030Z,9.21
2023-02-19T17:19:03.920Z,9.87
2023-02-19T17:21:49.870Z,9.55
2023-02-19T17:24:35.780Z,9.95
2023-02-19T17:27:21.645Z,10.16
2023-02-19T17:30:07.584Z,9.26
2023-02-19T17:32:53.401Z,9.21
2023-02-19T17:35:39.340Z,9.22
2023-02-19T17:38:25.241Z,9.92
2023-02-19T17:41:11.455Z,10.31
2023-02-19T17:43:57.498Z,10.02
2023-02-19T17:46:43.307Z,10.23
2023-02-19T17:49:29.099Z,9.50
2023-02-19T17:52:14.794Z,9.35
2023-02-19T17:55:00.652Z,9.56
2023-02-19T17:57:46.643Z,8.51
2023-02-19T18:00:32.457Z,7.95
2023-02-19T18:03:18.355Z,7.70
2023-02-19T18:06:04.217Z,7.42
2023-02-19T18:08:50.091Z,6.94
2023-02-19T18:11:37.392Z,6.91
2023-02-19T18:14:23.429Z,6.91
2023-02-19T18:17:09.357Z,6.93
2023-02-19T18:19:55.295Z,6.91
2023-02-19T18:22:41.143Z,6.78
2023-02-19T18:25:27.197Z,6.88
2023-02-19T18:28:13.049Z,6.97
2023-02-19T18:30:59.009Z,6.72
2023-02-19T18:33:45.335Z,6.82
2023-02-19T18:36:31.181Z,6.68
2023-02-19T18:39:17.067Z,6.81
2023-02-19T18:42:02.937Z,6.41
2023-02-19T18:44:48.737Z,6.25
2023-02-19T18:47:34.690Z,6.16
2023-02-19T18:50:20.583Z,6.11
2023-02-19T18:53:06.514Z,6.29
2023-02-19T18:55:52.428Z,6.36
2023-02-19T18:58:38.213Z,6.46
2023-02-19T19:01:24.241Z,6.43
2023-02-19T19:04:10.100Z,7.09
2023-02-19T19:06:55.919Z,6.73
2023-02-19T19:09:41.856Z,6.93
2023-02-19T19:12:27.737Z,6.89
2023-02-19T19:15:13.622Z,6.93
2023-02-19T19:17:59.921Z,6.77
2023-02-19T19:20:47.773Z,6.44
2023-02-19T19:23:33.677Z,6.50
2023-02-19T19:26:19.687Z,5.89
2023-02-19T19:29:05.548Z,5.67
2023-02-19T19:31:51.587Z,5.41
2023-02-19T19:34:37.444Z,5.32
2023-02-19T19:37:23.206Z,5.17
2023-02-19T19:40:09.191Z,5.08
2023-02-19T19:42:55.030Z,5.47
2023-02-19T19:45:41.045Z,5.78
2023-02-19T19:48:26.933Z,6.04
2023-02-19T19:51:12.916Z,5.66
2023-02-19T19:53:58.909Z,5.24
2023-02-19T19:56:44.730Z,4.86
2023-02-19T19:59:30.680Z,4.95
2023-02-19T20:02:16.672Z,4.92
2023-02-19T20:05:02.610Z,4.73
2023-02-19T20:07:48.605Z,4.67
2023-02-19T20:10:34.686Z,5.17
2023-02-19T20:13:20.538Z,5.27
2023-02-19T20:16:06.579Z,5.33
2023-02-19T20:18:52.437Z,5.48
2023-02-19T20:21:38.420Z,5.22
2023-02-19T20:24:24.359Z,5.11
2023-02-19T20:27:10.428Z,5.18
2023-02-19T20:29:56.251Z,5.07
2023-02-19T20:32:44.084Z,4.61
2023-02-19T20:35:29.978Z,3.97
2023-02-19T20:38:15.804Z,3.78
2023-02-19T20:41:01.583Z,3.63
2023-02-19T20:43:47.728Z,3.99
2023-02-19T20:46:35.623Z,4.47
2023-02-19T20:49:21.515Z,4.63
2023-02-19T20:52:07.444Z,4.73
2023-02-19T20:54:53.429Z,4.73
2023-02-19T20:57:39.289Z,4.46
2023-02-19T21:00:25.130Z,4.43
2023-02-19T21:03:11.036Z,4.72
2023-02-19T21:05:56.847Z,4.81
2023-02-19T21:08:42.797Z,4.50
2023-02-19T21:11:28.616Z,4.25
2023-02-19T21:14:14.565Z,4.45
2023-02-19T21:17:00.647Z,4.68
2023-02-19T21:19:46.999Z,4.69
2023-02-19T21:22:33.937Z,4.92
2023-02-19T21:25:20.044Z,5.03
2023-02-19T21:28:05.862Z,5.00
2023-02-19T21:30:51.747Z,4.87
2023-02-19T21:33:37.578Z,4.46
2023-02-19T21:36:23.538Z,3.95
2023-02-19T21:39:09.465Z,3.71
2023-02-19T21:41:55.343Z,3.68
2023-02-19T21:44:43.025Z,3.59
2023-02-19T21:47:29.123Z,3.25
2023-02-19T21:50:14.984Z,3.28
2023-02-19T21:53:00.985Z,3.37
2023-02-19T21:55:56.610Z,3.62
2023-02-19T21:58:44.461Z,3.79
2023-02-19T22:01:30.323Z,3.79
2023-02-19T22:04:16.065Z,3.66
2023-02-19T22:07:01.942Z,3.56
2023-02-19T22:09:47.676Z,3.88
2023-02-19T22:12:33.481Z,3.36
2023-02-19T22:15:19.542Z,3.40
2023-02-19T22:18:05.577Z,3.50
2023-02-19T22:20:51.794Z,3.57
2023-02-19T22:23:37.678Z,3.50
2023-02-19T22:26:23.524Z,3.51
2023-02-19T22:29:09.480Z,3.41
2023-02-19T22:31:55.356Z,3.49
2023-02-19T22:34:41.697Z,3.47
2023-02-19T22:37:27.626Z,3.45
2023-02-19T22:40:16.007Z,3.45
2023-02-19T22:43:01.883Z,3.52
2023-02-19T22:45:47.856Z,3.54
2023-02-19T22:48:35.743Z,3.51
2023-02-19T22:51:21.887Z,3.41
2023-02-19T22:54:07.886Z,3.54
2023-02-19T22:56:53.743Z,3.62
2023-02-19T22:59:39.548Z,3.52
2023-02-19T23:02:25.396Z,3.53
2023-02-19T23:05:11.267Z,3.71
2023-02-19T23:07:57.148Z,3.88
2023-02-19T23:10:42.950Z,3.93
2023-02-19T23:13:28.983Z,3.75
2023-02-19T23:16:15.691Z,3.85
2023-02-19T23:19:01.927Z,3.69
2023-02-19T23:21:48.004Z,3.68
2023-02-19T23:24:33.800Z,3.67
2023-02-19T23:27:19.593Z,3.67
2023-02-19T23:30:05.464Z,3.81
2023-02-19T23:32:51.329Z,3.76
2023-02-19T23:35:37.275Z,3.86
2023-02-19T23:38:23.199Z,3.77
2023-02-19T23:41:09.049Z,3.57
2023-02-19T23:43:54.902Z,3.39
2023-02-19T23:46:40.701Z,3.31
2023-02-19T23:49:26.517Z,3.16
2023-02-19T23:52:12.482Z,3.20
2023-02-19T23:54:58.381Z,3.16
2023-02-19T23:57:45.357Z,3.14
